West Yellowstone, MT

11:06 AM MDT on August 31, 2016 (GMT -0600)
Yellowstone | | Change Station

Elev 6644 ft 44.69 °N, 111.12 °W | Updated 16 minutes ago

Haze
Haze
66 °F
Feels Like 66 °F
N
0
Wind Variable Wind from North

Today
High -- | Low -- °F
--% Chance of Precip.
Yesterday
High -- | Low -- °F
Precip. -- in
Pressure 30.27 in
Visibility 1.2 miles
Clouds Clear
Dew Point 32 °F
Humidity 28%
Rainfall 0.00 in
Snow Depth Not available.
6:46 AM 8:01 PM
Waning Crescent, 0% visible
METAR KWYS 311650Z AUTO 00000KT 1 1/4SM HZ CLR 19/00 A3027 RMK AO2
Pressure 30.27 in
Visibility 1.2 miles
Clouds Clear
Dew Point 32 °F
Humidity 28%
Rainfall 0.00 in
Snow Depth Not available.
6:46 AM 8:01 PM
Waning Crescent, 0% visible
METAR KWYS 311650Z AUTO 00000KT 1 1/4SM HZ CLR 19/00 A3027 RMK AO2

10-Day Weather Forecast

Almanac

Astronomy

Aug. 31, 2016 Rise Set
Actual Time
Civil Twilight
Nautical Twilight
Astronomical Twilight
Moon
Length of Visible Light
Length of Day
Tomorrow will be .
, % of the Moon is Illuminated

Today's Extremes

State Highs State Lows

Community

WunderPhotos

Upload Photos

1,936,128 photos uploaded!

WunderBlog® & News

Nearby

Air Quality

  Air Quality AQ Index Pollutant
Not available.

Snow Depth

Station Depth Elevation

Earthquake Activity

City Distance Mag. Time & Date
Minimum magnitude displayed is 2.5.

Coastal Water Temperatures

Place Temperature

Stations

Nearby Weather Stations

Station Location Temp. Windchill Dew Point Humidity Wind Precip. Elev Updated Type
                   

Watches & Warnings

There are currently no watches in effect.